createdAt,value
2019-04-21T00:00:17.664Z,1027.82
2019-04-21T00:01:18.395Z,1027.84
2019-04-21T00:02:24.230Z,1027.83
2019-04-21T00:03:26.173Z,1027.84
2019-04-21T00:04:30.862Z,1027.86
2019-04-21T00:05:35.143Z,1027.83
2019-04-21T00:06:36.740Z,1027.81
2019-04-21T00:07:37.774Z,1027.86
2019-04-21T00:08:37.550Z,1027.79
2019-04-21T00:09:40.037Z,1027.88
2019-04-21T00:10:46.400Z,1027.88
2019-04-21T00:11:34.307Z,1027.89
2019-04-21T00:12:31.099Z,1027.88
2019-04-21T00:13:35.509Z,1027.87
2019-04-21T00:14:30.240Z,1027.88
2019-04-21T00:15:27.755Z,1027.83
2019-04-21T00:16:25.609Z,1027.83
2019-04-21T00:17:19.678Z,1027.88
2019-04-21T00:18:17.440Z,1027.90
2019-04-21T00:19:21.776Z,1027.90
2019-04-21T00:20:27.334Z,1027.90
2019-04-21T00:21:26.631Z,1027.88
2019-04-21T00:22:33.183Z,1027.90
2019-04-21T00:23:33.205Z,1027.97
2019-04-21T00:24:29.222Z,1027.92
2019-04-21T00:25:31.078Z,1027.91
2019-04-21T00:26:42.533Z,1027.92
2019-04-21T00:27:33.723Z,1027.92
2019-04-21T00:28:42.590Z,1027.90
2019-04-21T00:29:38.333Z,1027.92
2019-04-21T00:30:39.828Z,1027.92
2019-04-21T00:31:36.111Z,1027.91
2019-04-21T00:32:28.259Z,1027.90
2019-04-21T00:33:24.355Z,1027.92
2019-04-21T00:34:17.680Z,1027.91
2019-04-21T00:35:21.031Z,1027.93
2019-04-21T00:36:24.255Z,1027.87
2019-04-21T00:37:26.795Z,1027.89
2019-04-21T00:38:49.634Z,1027.88
2019-04-21T00:39:47.482Z,1027.87
2019-04-21T00:40:41.428Z,1027.86
2019-04-21T00:41:38.344Z,1027.90
2019-04-21T00:42:34.213Z,1027.91
2019-04-21T00:43:32.900Z,1027.86
2019-04-21T00:44:28.423Z,1027.84
2019-04-21T00:45:31.471Z,1027.83
2019-04-21T00:46:32.309Z,1027.87
2019-04-21T00:47:38.755Z,1027.86
2019-04-21T00:48:45.904Z,1027.88
2019-04-21T00:49:34.365Z,1027.89
2019-04-21T00:50:40.730Z,1027.90
2019-04-21T00:51:47.058Z,1027.92
2019-04-21T00:52:50.971Z,1027.90
2019-04-21T00:53:43.646Z,1027.90
2019-04-21T00:54:51.413Z,1027.88
2019-04-21T00:55:45.879Z,1027.86
2019-04-21T00:56:40.550Z,1027.88
2019-04-21T00:57:45.771Z,1027.84
2019-04-21T00:58:39.005Z,1027.82
2019-04-21T00:59:40.321Z,1027.86
2019-04-21T01:00:40.125Z,1027.89
2019-04-21T01:01:38.028Z,1027.86
2019-04-21T01:02:45.525Z,1027.90
2019-04-21T01:03:40.153Z,1027.87
2019-04-21T01:04:42.850Z,1027.91
2019-04-21T01:05:42.306Z,1027.90
2019-04-21T01:06:42.807Z,1027.94
2019-04-21T01:07:37.061Z,1027.94
2019-04-21T01:08:35.656Z,1027.94
2019-04-21T01:09:32.781Z,1027.96
2019-04-21T01:10:28.705Z,1027.91
2019-04-21T01:11:37.681Z,1027.94
2019-04-21T01:12:37.891Z,1027.95
2019-04-21T01:13:43.936Z,1027.96
2019-04-21T01:14:43.206Z,1028.00
2019-04-21T01:15:43.567Z,1027.96
2019-04-21T01:16:39.824Z,1028.01
2019-04-21T01:17:42.964Z,1028.01
2019-04-21T01:18:38.018Z,1028.00
2019-04-21T01:19:37.012Z,1028.02
2019-04-21T01:20:18.208Z,1028.06
2019-04-21T01:21:17.456Z,1028.00
2019-04-21T01:22:17.463Z,1028.00
2019-04-21T01:23:17.466Z,1028.00
2019-04-21T01:24:26.362Z,1028.00
2019-04-21T01:25:27.185Z,1028.03
2019-04-21T01:26:30.923Z,1028.00
2019-04-21T01:27:33.560Z,1027.98
2019-04-21T01:28:36.541Z,1027.99
2019-04-21T01:29:41.578Z,1027.93
2019-04-21T01:30:42.998Z,1027.92
2019-04-21T01:31:37.223Z,1027.94
2019-04-21T01:32:47.038Z,1027.90
2019-04-21T01:33:39.802Z,1027.93
2019-04-21T01:34:40.895Z,1027.93
2019-04-21T01:35:39.998Z,1027.89
2019-04-21T01:36:34.842Z,1027.96
2019-04-21T01:37:44.049Z,1027.97
2019-04-21T01:38:40.052Z,1028.01
2019-04-21T01:39:42.833Z,1028.02
2019-04-21T01:40:41.002Z,1028.04
2019-04-21T01:41:43.091Z,1028.00
2019-04-21T01:42:38.171Z,1028.01
2019-04-21T01:43:33.939Z,1028.05
2019-04-21T01:44:42.830Z,1028.02
2019-04-21T01:45:41.632Z,1028.01
2019-04-21T01:46:33.900Z,1028.04
2019-04-21T01:47:37.620Z,1028.02
2019-04-21T01:48:37.489Z,1028.03
2019-04-21T01:49:33.367Z,1028.08
2019-04-21T01:50:34.514Z,1028.10
2019-04-21T01:51:37.072Z,1028.12
2019-04-21T01:52:48.307Z,1028.09
2019-04-21T01:53:44.793Z,1028.15
2019-04-21T01:54:44.986Z,1028.14
2019-04-21T01:55:40.962Z,1028.17
2019-04-21T01:56:38.949Z,1028.11
2019-04-21T01:57:35.720Z,1028.14
2019-04-21T01:58:29.422Z,1028.13
2019-04-21T01:59:30.638Z,1028.13
2019-04-21T02:00:35.070Z,1028.11
2019-04-21T02:01:49.281Z,1028.15
2019-04-21T02:02:35.992Z,1028.11
2019-04-21T02:04:41.676Z,1028.16
2019-04-21T02:05:44.440Z,1028.16
2019-04-21T02:06:41.077Z,1028.11
2019-04-21T02:07:40.277Z,1028.14
2019-04-21T02:08:38.857Z,1028.10
2019-04-21T02:09:38.065Z,1028.09
2019-04-21T02:10:39.959Z,1028.07
2019-04-21T02:11:43.319Z,1028.07
2019-04-21T02:12:43.250Z,1028.04
2019-04-21T02:13:49.004Z,1028.10
2019-04-21T02:14:45.674Z,1028.04
2019-04-21T02:15:42.376Z,1028.04
2019-04-21T02:16:40.657Z,1028.00
2019-04-21T02:17:36.338Z,1028.02
2019-04-21T02:18:39.123Z,1028.03
2019-04-21T02:19:32.587Z,1028.02
2019-04-21T02:20:29.146Z,1027.98
2019-04-21T02:21:31.697Z,1028.02
2019-04-21T02:22:56.040Z,1028.01
2019-04-21T02:23:46.812Z,1028.00
2019-04-21T02:24:47.992Z,1028.00
2019-04-21T02:25:41.011Z,1027.96
2019-04-21T02:26:41.496Z,1027.99
2019-04-21T02:27:44.742Z,1027.98
2019-04-21T02:28:50.048Z,1027.99
2019-04-21T02:29:45.599Z,1028.04
2019-04-21T02:31:48.829Z,1028.03
2019-04-21T02:32:48.367Z,1027.99
2019-04-21T02:33:57.452Z,1028.02
2019-04-21T02:34:48.965Z,1028.01
2019-04-21T02:36:09.785Z,1028.04
2019-04-21T02:37:05.296Z,1027.97
2019-04-21T02:37:53.523Z,1027.99
2019-04-21T02:42:58.874Z,1028.04
2019-04-21T02:43:56.025Z,1028.06
2019-04-21T02:45:47.174Z,1028.10
2019-04-21T02:49:11.242Z,1028.13
2019-04-21T02:52:52.916Z,1028.07
2019-04-21T02:54:35.944Z,1028.08
2019-04-21T02:55:03.289Z,1028.05
2019-04-21T02:55:48.086Z,1028.05
2019-04-21T02:56:52.958Z,1028.05
2019-04-21T02:57:49.808Z,1028.04
2019-04-21T02:58:51.211Z,1028.04
2019-04-21T02:59:55.869Z,1028.05
2019-04-21T03:00:44.923Z,1028.06
2019-04-21T03:01:56.858Z,1028.06
2019-04-21T03:02:48.869Z,1028.05
2019-04-21T03:03:56.236Z,1028.09
2019-04-21T03:04:53.445Z,1028.07
2019-04-21T03:06:55.552Z,1028.12
2019-04-21T03:09:46.071Z,1028.09
2019-04-21T03:10:53.505Z,1028.13
2019-04-21T03:11:57.972Z,1028.09
2019-04-21T03:12:44.332Z,1028.07
2019-04-21T03:14:56.447Z,1028.07
2019-04-21T03:16:09.493Z,1028.06
2019-04-21T03:16:40.463Z,1028.04
2019-04-21T03:17:53.570Z,1028.06
2019-04-21T03:18:48.534Z,1028.05
2019-04-21T03:20:51.135Z,1028.03
2019-04-21T03:21:49.007Z,1028.06
2019-04-21T03:22:58.080Z,1028.03
2019-04-21T03:25:04.394Z,1028.02
2019-04-21T03:26:59.132Z,1028.00
2019-04-21T03:27:57.313Z,1027.99
2019-04-21T03:28:56.291Z,1028.06
2019-04-21T03:29:54.668Z,1028.01
2019-04-21T03:32:28.384Z,1028.03
2019-04-21T03:34:31.730Z,1028.02
2019-04-21T03:35:15.033Z,1028.02
2019-04-21T03:36:27.207Z,1028.02
2019-04-21T03:37:42.487Z,1027.98
2019-04-21T03:38:47.298Z,1028.01
2019-04-21T03:39:50.730Z,1027.99
2019-04-21T03:41:05.183Z,1028.04
2019-04-21T03:42:11.346Z,1028.02
2019-04-21T03:43:50.641Z,1028.04
2019-04-21T03:45:06.795Z,1027.99
2019-04-21T03:45:55.340Z,1028.02
2019-04-21T03:46:47.292Z,1028.02
2019-04-21T03:47:43.577Z,1028.04
2019-04-21T03:49:54.545Z,1028.07
2019-04-21T03:52:53.258Z,1028.08
2019-04-21T03:53:46.199Z,1028.09
2019-04-21T03:54:55.464Z,1028.07
2019-04-21T03:58:56.266Z,1028.06
2019-04-21T04:00:03.657Z,1028.07
2019-04-21T04:01:48.708Z,1028.09
2019-04-21T04:02:55.305Z,1028.07
2019-04-21T04:06:13.368Z,1028.12
2019-04-21T04:06:57.108Z,1028.08
2019-04-21T04:07:59.278Z,1028.09
2019-04-21T04:09:09.567Z,1028.09
2019-04-21T04:10:50.340Z,1028.10
2019-04-21T04:12:50.359Z,1028.13
2019-04-21T04:15:56.821Z,1028.18
2019-04-21T04:17:46.787Z,1028.12
2019-04-21T04:18:52.780Z,1028.17
2019-04-21T04:19:46.701Z,1028.18
2019-04-21T04:20:51.212Z,1028.15
2019-04-21T04:21:56.554Z,1028.18
2019-04-21T04:23:02.759Z,1028.19
2019-04-21T04:23:58.053Z,1028.20
2019-04-21T04:25:49.725Z,1028.22
2019-04-21T04:26:45.393Z,1028.23
2019-04-21T04:28:00.203Z,1028.27
2019-04-21T04:29:54.545Z,1028.33
2019-04-21T04:30:54.238Z,1028.35
2019-04-21T04:31:55.375Z,1028.37
2019-04-21T04:32:51.901Z,1028.36
2019-04-21T04:33:57.476Z,1028.42
2019-04-21T04:36:02.112Z,1028.42
2019-04-21T04:38:07.058Z,1028.44
2019-04-21T04:38:59.512Z,1028.45
2019-04-21T04:39:48.840Z,1028.41
2019-04-21T04:41:02.241Z,1028.40
2019-04-21T04:41:53.198Z,1028.40
2019-04-21T04:44:00.932Z,1028.42
2019-04-21T04:45:44.510Z,1028.37
2019-04-21T04:46:57.380Z,1028.37
2019-04-21T04:47:56.430Z,1028.39
2019-04-21T04:48:51.360Z,1028.39
2019-04-21T04:52:07.805Z,1028.37
2019-04-21T04:52:44.493Z,1028.31
2019-04-21T04:53:53.111Z,1028.28
2019-04-21T04:55:01.912Z,1028.27
2019-04-21T04:55:49.548Z,1028.27
2019-04-21T04:56:59.273Z,1028.20
2019-04-21T05:00:14.343Z,1028.24
2019-04-21T05:02:00.231Z,1028.26
2019-04-21T05:02:48.879Z,1028.23
2019-04-21T05:03:48.924Z,1028.23
2019-04-21T05:05:55.662Z,1028.23
2019-04-21T05:08:02.974Z,1028.21
2019-04-21T05:09:58.929Z,1028.25
2019-04-21T05:10:57.397Z,1028.22
2019-04-21T05:12:45.814Z,1028.18
2019-04-21T05:13:54.993Z,1028.19
2019-04-21T05:14:46.788Z,1028.20
2019-04-21T05:15:53.259Z,1028.16
2019-04-21T05:17:50.750Z,1028.20
2019-04-21T05:18:52.803Z,1028.19
2019-04-21T05:20:01.797Z,1028.21
2019-04-21T05:20:52.288Z,1028.23
2019-04-21T05:21:45.506Z,1028.25
2019-04-21T05:22:42.619Z,1028.26
2019-04-21T05:23:39.829Z,1028.25
2019-04-21T05:24:37.919Z,1028.25
2019-04-21T05:25:33.847Z,1028.22
2019-04-21T05:26:33.415Z,1028.19
2019-04-21T05:27:35.001Z,1028.19
2019-04-21T05:28:35.595Z,1028.16
2019-04-21T05:29:37.786Z,1028.18
2019-04-21T05:30:40.471Z,1028.17
2019-04-21T05:31:45.149Z,1028.19
2019-04-21T05:32:48.766Z,1028.20
2019-04-21T05:33:49.555Z,1028.20
2019-04-21T05:34:39.066Z,1028.22
2019-04-21T05:35:43.315Z,1028.24
2019-04-21T05:36:37.853Z,1028.26
2019-04-21T05:37:39.803Z,1028.25
2019-04-21T05:38:37.708Z,1028.26
2019-04-21T05:39:36.166Z,1028.25
2019-04-21T05:40:31.898Z,1028.29
2019-04-21T05:41:31.389Z,1028.29
2019-04-21T05:42:34.169Z,1028.28
2019-04-21T05:43:38.997Z,1028.32
2019-04-21T05:44:57.173Z,1028.34
2019-04-21T05:45:33.413Z,1028.33
2019-04-21T05:46:50.659Z,1028.33
2019-04-21T05:47:47.384Z,1028.35
2019-04-21T05:48:39.831Z,1028.30
2019-04-21T05:49:40.040Z,1028.35
2019-04-21T05:50:42.364Z,1028.39
2019-04-21T05:51:35.316Z,1028.45
2019-04-21T05:52:35.654Z,1028.43
2019-04-21T05:53:36.119Z,1028.44
2019-04-21T05:54:44.130Z,1028.49
2019-04-21T05:55:46.330Z,1028.45
2019-04-21T05:56:46.065Z,1028.45
2019-04-21T05:57:38.487Z,1028.46
2019-04-21T05:58:45.803Z,1028.42
2019-04-21T05:59:44.325Z,1028.43
2019-04-21T06:00:59.179Z,1028.40
2019-04-21T06:01:48.603Z,1028.40
2019-04-21T06:02:43.799Z,1028.40
2019-04-21T06:03:44.804Z,1028.40
2019-04-21T06:05:05.651Z,1028.40
2019-04-21T06:05:53.337Z,1028.39
2019-04-21T06:06:48.086Z,1028.41
2019-04-21T06:07:39.452Z,1028.39
2019-04-21T06:08:53.261Z,1028.43
2019-04-21T06:10:47.281Z,1028.45
2019-04-21T06:11:36.605Z,1028.44
2019-04-21T06:12:44.966Z,1028.46
2019-04-21T06:13:51.538Z,1028.50
2019-04-21T06:14:46.446Z,1028.50
2019-04-21T06:15:47.184Z,1028.54
2019-04-21T06:16:54.446Z,1028.53
2019-04-21T06:17:44.563Z,1028.57
2019-04-21T06:18:48.886Z,1028.59
2019-04-21T06:19:49.423Z,1028.65
2019-04-21T06:20:44.503Z,1028.62
2019-04-21T06:21:39.095Z,1028.65
2019-04-21T06:22:41.470Z,1028.66
2019-04-21T06:23:43.573Z,1028.67
2019-04-21T06:24:54.225Z,1028.70
2019-04-21T06:25:55.228Z,1028.67
2019-04-21T06:26:56.248Z,1028.71
2019-04-21T06:27:40.379Z,1028.76
2019-04-21T06:28:47.256Z,1028.78
2019-04-21T06:29:46.756Z,1028.77
2019-04-21T06:30:53.066Z,1028.77
2019-04-21T06:35:00.267Z,1028.80
2019-04-21T06:36:09.001Z,1028.81
2019-04-21T06:36:43.913Z,1028.81
2019-04-21T06:38:53.881Z,1028.79
2019-04-21T06:39:51.940Z,1028.79
2019-04-21T06:40:46.105Z,1028.83
2019-04-21T06:41:39.076Z,1028.84
2019-04-21T06:42:42.993Z,1028.80
2019-04-21T06:43:49.951Z,1028.80
2019-04-21T06:44:48.866Z,1028.83
2019-04-21T06:45:50.822Z,1028.79
2019-04-21T06:46:40.741Z,1028.79
2019-04-21T06:47:59.256Z,1028.74
2019-04-21T06:48:44.457Z,1028.75
2019-04-21T06:49:36.959Z,1028.72
2019-04-21T06:50:46.727Z,1028.82
2019-04-21T06:51:55.987Z,1028.82
2019-04-21T06:52:51.934Z,1028.83
2019-04-21T06:53:44.575Z,1028.88
2019-04-21T06:54:50.742Z,1028.87
2019-04-21T06:55:37.978Z,1028.88
2019-04-21T06:57:43.165Z,1028.94
2019-04-21T06:58:42.817Z,1028.93
2019-04-21T06:59:38.415Z,1028.87
2019-04-21T07:00:35.813Z,1028.93
2019-04-21T07:02:05.329Z,1028.88
2019-04-21T07:03:00.093Z,1028.88
2019-04-21T07:03:49.330Z,1028.90
2019-04-21T07:04:46.583Z,1028.89
2019-04-21T07:05:48.499Z,1028.91
2019-04-21T07:06:53.687Z,1028.91
2019-04-21T07:07:43.329Z,1028.93
2019-04-21T07:08:48.851Z,1028.90
2019-04-21T07:09:49.327Z,1028.94
2019-04-21T07:10:38.528Z,1028.89
2019-04-21T07:11:37.792Z,1028.93
2019-04-21T07:12:39.272Z,1028.96
2019-04-21T07:13:36.797Z,1028.91
2019-04-21T07:14:50.046Z,1028.96
2019-04-21T07:15:45.428Z,1028.94
2019-04-21T07:16:45.195Z,1028.92
2019-04-21T07:17:38.843Z,1028.92
2019-04-21T07:18:45.070Z,1028.97
2019-04-21T07:20:47.765Z,1028.93
2019-04-21T07:21:43.034Z,1028.89
2019-04-21T07:22:42.814Z,1028.90
2019-04-21T07:23:47.269Z,1028.88
2019-04-21T07:24:43.357Z,1028.90
2019-04-21T07:26:00.461Z,1028.87
2019-04-21T07:26:47.698Z,1028.93
2019-04-21T07:28:19.328Z,1028.91
2019-04-21T07:28:47.897Z,1028.92
2019-04-21T07:29:47.763Z,1029.00
2019-04-21T07:30:44.046Z,1028.93
2019-04-21T07:31:47.164Z,1028.96
2019-04-21T07:32:42.839Z,1028.93
2019-04-21T07:33:55.408Z,1028.96
2019-04-21T07:34:38.314Z,1029.01
2019-04-21T07:35:45.711Z,1028.96
2019-04-21T07:36:52.400Z,1029.00
2019-04-21T07:37:41.286Z,1028.98
2019-04-21T07:38:39.874Z,1028.97
2019-04-21T07:39:40.558Z,1029.03
2019-04-21T07:40:36.392Z,1029.06
2019-04-21T07:41:39.856Z,1029.02
2019-04-21T07:42:40.086Z,1029.04
2019-04-21T07:43:35.554Z,1028.99
2019-04-21T07:44:36.541Z,1029.02
2019-04-21T07:45:35.049Z,1028.99
2019-04-21T07:46:29.038Z,1029.01
2019-04-21T07:47:44.575Z,1028.97
2019-04-21T07:48:44.642Z,1029.00
2019-04-21T07:49:43.624Z,1028.92
2019-04-21T07:50:41.617Z,1028.94
2019-04-21T07:51:45.561Z,1028.91
2019-04-21T07:52:39.458Z,1028.95
2019-04-21T07:53:48.236Z,1028.91
2019-04-21T07:54:55.485Z,1028.93
2019-04-21T07:56:30.051Z,1028.95
2019-04-21T07:57:36.855Z,1028.99
2019-04-21T07:58:51.073Z,1029.03
2019-04-21T07:59:48.437Z,1028.96
2019-04-21T08:00:56.290Z,1028.97
2019-04-21T08:01:42.473Z,1028.98
2019-04-21T08:02:47.897Z,1028.91
2019-04-21T08:03:43.874Z,1028.91
2019-04-21T08:05:07.423Z,1028.90
2019-04-21T08:05:47.107Z,1028.91
2019-04-21T08:06:42.878Z,1028.94
2019-04-21T08:07:48.184Z,1028.91
2019-04-21T08:08:42.219Z,1028.91
2019-04-21T08:09:44.861Z,1028.89
2019-04-21T08:10:37.781Z,1028.90
2019-04-21T08:11:36.854Z,1028.87
2019-04-21T08:12:36.342Z,1028.90
2019-04-21T08:14:59.822Z,1028.86
2019-04-21T08:15:39.502Z,1028.84
2019-04-21T08:16:37.228Z,1028.84
2019-04-21T08:17:41.469Z,1028.77
2019-04-21T08:18:39.847Z,1028.82
2019-04-21T08:19:35.429Z,1028.85
2019-04-21T08:20:39.674Z,1028.82
2019-04-21T08:21:41.996Z,1028.84
2019-04-21T08:22:49.403Z,1028.82
2019-04-21T08:23:38.373Z,1028.84
2019-04-21T08:24:43.843Z,1028.81
2019-04-21T08:25:46.309Z,1028.85
2019-04-21T08:27:01.050Z,1028.85
2019-04-21T08:27:48.473Z,1028.76
2019-04-21T08:28:39.187Z,1028.80
2019-04-21T08:29:40.875Z,1028.81
2019-04-21T08:30:42.991Z,1028.82
2019-04-21T08:31:49.951Z,1028.82
2019-04-21T08:33:00.595Z,1028.79
2019-04-21T08:34:42.967Z,1028.78
2019-04-21T08:36:40.712Z,1028.67
2019-04-21T08:37:37.075Z,1028.76
2019-04-21T08:38:42.275Z,1028.70
2019-04-21T08:39:50.961Z,1028.67
2019-04-21T08:40:55.870Z,1028.65
2019-04-21T08:41:38.913Z,1028.66
2019-04-21T08:42:41.597Z,1028.65
2019-04-21T08:43:43.098Z,1028.65
2019-04-21T08:44:40.641Z,1028.60
2019-04-21T08:45:41.595Z,1028.58
2019-04-21T08:46:44.668Z,1028.59
2019-04-21T08:47:39.820Z,1028.60
2019-04-21T08:48:42.315Z,1028.54
2019-04-21T08:49:41.411Z,1028.61
2019-04-21T08:50:41.510Z,1028.58
2019-04-21T08:51:39.618Z,1028.57
2019-04-21T08:52:50.672Z,1028.54
2019-04-21T08:53:42.979Z,1028.53
2019-04-21T08:54:43.528Z,1028.52
2019-04-21T08:55:40.043Z,1028.52
2019-04-21T08:56:40.159Z,1028.51
2019-04-21T08:57:50.664Z,1028.57
2019-04-21T08:58:42.611Z,1028.53
2019-04-21T08:59:40.396Z,1028.54
2019-04-21T09:00:38.957Z,1028.55
2019-04-21T09:01:42.944Z,1028.52
2019-04-21T09:02:41.098Z,1028.55
2019-04-21T09:03:43.323Z,1028.52
2019-04-21T09:04:33.911Z,1028.52
2019-04-21T09:05:37.845Z,1028.53
2019-04-21T09:06:54.182Z,1028.56
2019-04-21T09:07:42.946Z,1028.59
2019-04-21T09:08:44.416Z,1028.62
2019-04-21T09:09:41.585Z,1028.60
2019-04-21T09:10:42.222Z,1028.58
2019-04-21T09:11:37.696Z,1028.56
2019-04-21T09:12:34.549Z,1028.61
2019-04-21T09:13:38.221Z,1028.61
2019-04-21T09:14:36.513Z,1028.59
2019-04-21T09:15:34.921Z,1028.65
2019-04-21T09:16:36.654Z,1028.57
2019-04-21T09:17:32.837Z,1028.58
2019-04-21T09:18:35.542Z,1028.58
2019-04-21T09:20:46.136Z,1028.56
2019-04-21T09:21:39.247Z,1028.57
2019-04-21T09:22:35.862Z,1028.59
2019-04-21T09:23:39.183Z,1028.59
2019-04-21T09:24:41.254Z,1028.60
2019-04-21T09:25:42.939Z,1028.57
2019-04-21T09:26:34.042Z,1028.62
2019-04-21T09:27:36.742Z,1028.62
2019-04-21T09:28:36.975Z,1028.61
2019-04-21T09:29:33.672Z,1028.60
2019-04-21T09:30:19.955Z,1028.61
2019-04-21T09:31:28.678Z,1028.62
2019-04-21T09:32:23.620Z,1028.61
2019-04-21T09:33:20.822Z,1028.62
2019-04-21T09:34:27.111Z,1028.63
2019-04-21T09:35:20.827Z,1028.60
2019-04-21T09:36:23.359Z,1028.62
2019-04-21T09:37:33.024Z,1028.62
2019-04-21T09:38:31.118Z,1028.66
2019-04-21T09:39:23.752Z,1028.65
2019-04-21T09:40:27.465Z,1028.67
2019-04-21T09:41:23.762Z,1028.67
2019-04-21T09:42:21.527Z,1028.71
2019-04-21T09:43:33.135Z,1028.66
2019-04-21T09:44:25.497Z,1028.68
2019-04-21T09:45:22.531Z,1028.66
2019-04-21T09:46:20.872Z,1028.67
2019-04-21T09:47:23.417Z,1028.76
2019-04-21T09:48:22.523Z,1028.70
2019-04-21T09:49:23.909Z,1028.67
2019-04-21T09:50:20.047Z,1028.66
2019-04-21T09:51:20.242Z,1028.67
2019-04-21T09:52:25.712Z,1028.63
2019-04-21T09:53:28.765Z,1028.68
2019-04-21T09:54:24.592Z,1028.61
2019-04-21T09:55:23.276Z,1028.58
2019-04-21T09:56:31.458Z,1028.58
2019-04-21T09:57:32.728Z,1028.54
2019-04-21T09:58:29.249Z,1028.54
2019-04-21T09:59:28.084Z,1028.52
2019-04-21T10:00:24.467Z,1028.59
2019-04-21T10:01:28.844Z,1028.54
2019-04-21T10:02:32.826Z,1028.52
2019-04-21T10:03:21.258Z,1028.48
2019-04-21T10:04:20.787Z,1028.52
2019-04-21T10:05:21.406Z,1028.50
2019-04-21T10:06:20.798Z,1028.45
2019-04-21T10:07:26.420Z,1028.43
2019-04-21T10:08:20.141Z,1028.43
2019-04-21T10:09:21.687Z,1028.41
2019-04-21T10:10:20.147Z,1028.42
2019-04-21T10:11:21.004Z,1028.46
2019-04-21T10:12:20.158Z,1028.45
2019-04-21T10:13:20.848Z,1028.47
2019-04-21T10:14:20.172Z,1028.41
2019-04-21T10:15:23.241Z,1028.42
2019-04-21T10:16:20.177Z,1028.42
2019-04-21T10:17:21.604Z,1028.41
2019-04-21T10:18:21.534Z,1028.39
2019-04-21T10:19:21.097Z,1028.44
2019-04-21T10:20:20.268Z,1028.40
2019-04-21T10:21:20.204Z,1028.37
2019-04-21T10:22:21.157Z,1028.38
2019-04-21T10:23:21.187Z,1028.42
2019-04-21T10:24:20.279Z,1028.40
2019-04-21T10:25:20.909Z,1028.37
2019-04-21T10:26:20.233Z,1028.39
2019-04-21T10:27:21.096Z,1028.37
2019-04-21T10:28:21.167Z,1028.39
2019-04-21T10:29:24.282Z,1028.38
2019-04-21T10:30:20.458Z,1028.35
2019-04-21T10:31:20.782Z,1028.33
2019-04-21T10:32:23.477Z,1028.32
2019-04-21T10:33:20.275Z,1028.31
2019-04-21T10:34:21.111Z,1028.28
2019-04-21T10:35:21.807Z,1028.30
2019-04-21T10:36:20.404Z,1028.33
2019-04-21T10:37:20.873Z,1028.28
2019-04-21T10:38:30.382Z,1028.29
2019-04-21T10:39:20.300Z,1028.33
2019-04-21T10:40:21.273Z,1028.28
2019-04-21T10:41:21.483Z,1028.33
2019-04-21T10:42:21.387Z,1028.31
2019-04-21T10:43:22.240Z,1028.31
2019-04-21T10:44:21.031Z,1028.28
2019-04-21T10:45:21.173Z,1028.26
2019-04-21T10:46:20.351Z,1028.25
2019-04-21T10:47:20.662Z,1028.20
2019-04-21T10:48:21.009Z,1028.24
2019-04-21T10:49:20.355Z,1028.22
2019-04-21T10:50:20.481Z,1028.22
2019-04-21T10:51:21.217Z,1028.19
2019-04-21T10:52:20.374Z,1028.28
2019-04-21T10:53:20.834Z,1028.21
